createdAt,value
2022-12-16T00:01:49.030Z,-5.00
2022-12-16T00:04:36.384Z,-4.90
2022-12-16T00:07:23.852Z,-4.90
2022-12-16T00:10:10.990Z,-4.90
2022-12-16T00:12:58.397Z,-4.90
2022-12-16T00:15:46.714Z,-4.90
2022-12-16T00:18:34.418Z,-4.90
2022-12-16T00:21:23.229Z,-4.80
2022-12-16T00:24:10.595Z,-4.80
2022-12-16T00:26:58.394Z,-4.80
2022-12-16T00:29:45.588Z,-4.70
2022-12-16T00:32:32.802Z,-4.50
2022-12-16T00:35:20.385Z,-4.10
2022-12-16T00:38:07.464Z,-3.70
2022-12-16T00:40:55.002Z,-3.20
2022-12-16T00:43:42.292Z,-2.70
2022-12-16T00:46:29.916Z,-2.30
2022-12-16T00:49:17.248Z,-2.00
2022-12-16T00:52:04.633Z,-1.80
2022-12-16T00:54:52.083Z,-1.70
2022-12-16T00:57:40.044Z,-1.50
2022-12-16T01:00:27.221Z,-1.30
2022-12-16T01:03:21.035Z,-1.20
2022-12-16T01:06:04.818Z,-1.20
2022-12-16T01:08:52.358Z,-1.10
2022-12-16T01:11:39.867Z,-1.10
2022-12-16T01:14:27.377Z,-1.00
2022-12-16T01:17:15.000Z,-0.90
2022-12-16T01:20:03.001Z,-0.90
2022-12-16T01:22:53.368Z,-0.80
2022-12-16T01:25:42.120Z,-0.80
2022-12-16T01:28:30.548Z,-0.80
2022-12-16T01:31:19.795Z,-0.80
2022-12-16T01:34:07.123Z,-0.90
2022-12-16T01:36:54.398Z,-0.90
2022-12-16T01:39:42.591Z,-1.00
2022-12-16T01:42:31.188Z,-1.00
2022-12-16T01:45:27.298Z,-1.00
2022-12-16T01:48:23.445Z,-1.10
2022-12-16T01:51:34.975Z,-1.20
2022-12-16T01:54:31.755Z,-1.20
2022-12-16T01:57:24.875Z,-1.20
2022-12-16T02:00:14.256Z,-1.20
2022-12-16T02:03:02.181Z,-1.10
2022-12-16T02:05:51.058Z,-1.10
2022-12-16T02:08:38.543Z,-1.20
2022-12-16T02:11:32.097Z,-1.10
2022-12-16T02:14:31.876Z,-1.10
2022-12-16T02:17:30.839Z,-1.10
2022-12-16T02:20:32.781Z,-1.10
2022-12-16T02:23:28.492Z,-1.20
2022-12-16T02:26:34.006Z,-1.30
2022-12-16T02:29:33.334Z,-1.40
2022-12-16T02:32:52.409Z,-1.40
2022-12-16T02:35:55.157Z,-1.50
2022-12-16T02:39:00.488Z,-1.60
2022-12-16T02:41:54.247Z,-1.80
2022-12-16T02:44:51.148Z,-1.90
2022-12-16T02:47:40.772Z,-2.00
2022-12-16T02:50:31.106Z,-2.00
2022-12-16T02:53:20.818Z,-2.10
2022-12-16T02:56:18.448Z,-2.10
2022-12-16T02:59:14.586Z,-2.20
2022-12-16T03:02:14.222Z,-2.30
2022-12-16T03:05:07.389Z,-2.30
2022-12-16T03:07:58.549Z,-2.40
2022-12-16T03:10:49.224Z,-2.30
2022-12-16T03:13:39.704Z,-2.40
2022-12-16T03:16:30.320Z,-2.50
2022-12-16T03:19:17.512Z,-2.40
2022-12-16T03:22:14.244Z,-2.40
2022-12-16T03:25:01.423Z,-2.40
2022-12-16T03:28:03.557Z,-2.50
2022-12-16T03:30:54.265Z,-2.50
2022-12-16T03:33:44.665Z,-2.10
2022-12-16T03:36:34.840Z,-1.80
2022-12-16T03:39:23.643Z,-1.70
2022-12-16T03:42:12.511Z,-1.60
2022-12-16T03:44:59.926Z,-1.50
2022-12-16T03:47:52.079Z,-1.40
2022-12-16T03:50:40.069Z,-1.30
2022-12-16T03:53:27.320Z,-1.40
2022-12-16T03:56:16.044Z,-1.30
2022-12-16T03:59:03.551Z,-1.20
2022-12-16T04:01:51.156Z,-1.10
2022-12-16T04:04:38.481Z,-1.10
2022-12-16T04:07:25.932Z,-1.00
2022-12-16T04:10:13.480Z,-1.00
2022-12-16T04:13:19.113Z,-0.90
2022-12-16T04:16:24.849Z,-0.80
2022-12-16T04:19:33.261Z,-0.70
2022-12-16T04:22:47.504Z,-0.60
2022-12-16T04:25:37.310Z,-0.60
2022-12-16T04:28:24.682Z,-0.70
2022-12-16T04:31:12.366Z,-0.60
2022-12-16T04:34:17.777Z,-0.50
2022-12-16T04:37:23.543Z,-0.50
2022-12-16T04:40:29.241Z,-0.40
2022-12-16T04:43:35.019Z,-0.40
2022-12-16T04:46:40.999Z,-0.40
2022-12-16T04:49:46.457Z,-0.40
2022-12-16T04:52:51.610Z,-0.40
2022-12-16T04:56:03.599Z,-0.30
2022-12-16T04:59:04.799Z,-0.30
2022-12-16T05:02:10.776Z,-0.30
2022-12-16T05:05:16.057Z,-0.20
2022-12-16T05:08:21.227Z,-0.20
2022-12-16T05:11:26.552Z,-0.20
2022-12-16T05:14:32.194Z,-0.20
2022-12-16T05:17:37.656Z,-0.20
2022-12-16T05:20:42.679Z,-0.20
2022-12-16T05:23:48.220Z,-0.10
2022-12-16T05:26:53.953Z,-0.20
2022-12-16T05:29:59.333Z,-0.20
2022-12-16T05:33:09.190Z,-0.20
2022-12-16T05:36:14.697Z,-0.20
2022-12-16T05:39:20.419Z,-0.20
2022-12-16T05:42:28.971Z,-0.20
2022-12-16T05:45:34.443Z,-0.30
2022-12-16T05:48:44.469Z,-0.50
2022-12-16T05:51:46.650Z,-0.60
2022-12-16T05:54:52.196Z,-0.70
2022-12-16T05:57:57.550Z,-0.80
2022-12-16T06:01:03.081Z,-1.00
2022-12-16T06:04:11.722Z,-1.10
2022-12-16T06:07:15.603Z,-1.20
2022-12-16T06:10:21.185Z,-1.40
2022-12-16T06:13:26.630Z,-1.50
2022-12-16T06:16:32.496Z,-1.60
2022-12-16T06:19:37.786Z,-1.80
2022-12-16T06:22:26.811Z,-2.00
2022-12-16T06:25:31.508Z,-2.00
2022-12-16T06:28:40.975Z,-2.10
2022-12-16T06:31:45.324Z,-2.10
2022-12-16T06:37:15.446Z,-2.20
2022-12-16T06:40:21.824Z,-2.40
2022-12-16T06:43:27.020Z,-2.50
2022-12-16T06:46:32.407Z,-2.50
2022-12-16T06:49:22.603Z,-2.60
2022-12-16T06:52:27.994Z,-2.70
2022-12-16T06:55:33.377Z,-2.80
2022-12-16T06:58:39.037Z,-2.80
2022-12-16T07:01:45.941Z,-2.90
2022-12-16T07:04:50.785Z,-2.90
2022-12-16T07:07:56.348Z,-3.00
2022-12-16T07:11:15.673Z,-3.20
2022-12-16T07:14:07.971Z,-3.20
2022-12-16T07:17:17.026Z,-3.30
2022-12-16T07:20:19.523Z,-3.40
2022-12-16T07:23:20.418Z,-3.60
2022-12-16T07:26:25.586Z,-3.70
2022-12-16T07:29:31.005Z,-3.70
2022-12-16T07:32:36.597Z,-3.70
2022-12-16T07:35:44.889Z,-3.80
2022-12-16T07:38:50.180Z,-3.80
2022-12-16T07:41:55.218Z,-3.80
2022-12-16T07:45:00.927Z,-3.90
2022-12-16T07:48:07.604Z,-3.90
2022-12-16T07:51:14.507Z,-3.90
2022-12-16T07:54:20.011Z,-3.90
2022-12-16T07:57:08.863Z,-3.90
2022-12-16T08:00:14.234Z,-3.90
2022-12-16T08:03:19.712Z,-3.80
2022-12-16T08:06:25.388Z,-3.80
2022-12-16T08:09:30.831Z,-3.80
2022-12-16T08:12:36.329Z,-3.80
2022-12-16T08:15:44.169Z,-3.70
2022-12-16T08:18:50.369Z,-3.60
2022-12-16T08:21:57.344Z,-3.40
2022-12-16T08:25:02.492Z,-3.30
2022-12-16T08:28:13.232Z,-3.20
2022-12-16T08:31:18.889Z,-3.10
2022-12-16T08:34:24.251Z,-2.90
2022-12-16T08:37:29.657Z,-2.80
2022-12-16T08:40:36.336Z,-2.50
2022-12-16T08:43:45.453Z,-2.20
2022-12-16T08:46:53.867Z,-1.70
2022-12-16T08:50:01.715Z,-1.30
2022-12-16T08:53:07.317Z,-1.00
2022-12-16T08:56:13.002Z,-0.50
2022-12-16T08:59:18.531Z,0.00
2022-12-16T09:02:26.074Z,0.20
2022-12-16T09:05:31.697Z,0.50
2022-12-16T09:08:37.155Z,0.90
2022-12-16T09:11:42.753Z,1.20
2022-12-16T09:14:48.503Z,1.50
2022-12-16T09:17:53.892Z,1.70
2022-12-16T09:20:59.929Z,1.90
2022-12-16T09:24:05.544Z,2.10
2022-12-16T09:27:12.259Z,2.30
2022-12-16T09:30:17.542Z,2.60
2022-12-16T09:33:22.843Z,2.70
2022-12-16T09:36:28.303Z,2.80
2022-12-16T09:39:33.895Z,3.10
2022-12-16T09:43:16.196Z,3.70
2022-12-16T09:46:30.806Z,4.50
2022-12-16T09:49:54.353Z,5.70
2022-12-16T09:53:06.976Z,5.90
2022-12-16T09:56:15.809Z,5.80
2022-12-16T09:59:23.539Z,5.10
2022-12-16T10:02:32.020Z,4.50
2022-12-16T10:05:39.964Z,4.00
2022-12-16T10:08:53.980Z,3.60
2022-12-16T10:12:08.210Z,4.20
2022-12-16T10:15:16.551Z,4.60
2022-12-16T10:18:24.882Z,4.70
2022-12-16T10:21:33.252Z,5.00
2022-12-16T10:25:00.632Z,5.40
2022-12-16T10:28:07.709Z,5.30
2022-12-16T10:31:13.673Z,5.50
2022-12-16T10:34:18.733Z,5.80
2022-12-16T10:37:23.966Z,6.20
2022-12-16T10:40:32.177Z,6.20
2022-12-16T10:43:46.779Z,6.50
2022-12-16T10:46:54.289Z,6.60
2022-12-16T10:49:57.181Z,6.70
2022-12-16T10:53:14.373Z,6.00
2022-12-16T10:56:55.076Z,5.30
2022-12-16T10:59:45.486Z,5.00
2022-12-16T11:02:50.657Z,4.70
2022-12-16T11:05:56.165Z,4.60
2022-12-16T11:09:01.939Z,4.60
2022-12-16T11:12:07.464Z,4.60
2022-12-16T11:15:28.730Z,4.20
2022-12-16T11:18:31.267Z,4.20
2022-12-16T11:21:40.579Z,4.50
2022-12-16T11:24:46.351Z,4.80
2022-12-16T11:27:54.651Z,4.70
2022-12-16T11:31:01.597Z,4.80
2022-12-16T11:34:07.775Z,4.60
2022-12-16T11:37:18.111Z,4.70
2022-12-16T11:40:20.732Z,4.80
2022-12-16T11:43:27.750Z,4.70
2022-12-16T11:46:36.502Z,4.60
2022-12-16T11:49:48.024Z,4.40
2022-12-16T11:52:53.865Z,4.50
2022-12-16T11:56:08.729Z,4.70
2022-12-16T11:59:12.475Z,5.00
2022-12-16T12:02:19.614Z,5.40
2022-12-16T12:05:29.231Z,5.50
2022-12-16T12:08:52.897Z,5.00
2022-12-16T12:12:04.026Z,4.90
2022-12-16T12:15:44.136Z,5.10
2022-12-16T12:19:10.874Z,5.00
2022-12-16T12:22:24.970Z,5.10
2022-12-16T12:25:42.793Z,5.00
2022-12-16T12:29:09.844Z,5.00
2022-12-16T12:32:27.148Z,4.70
2022-12-16T12:36:07.873Z,4.80
2022-12-16T12:39:23.139Z,4.80
2022-12-16T12:42:54.894Z,4.70
2022-12-16T12:46:20.589Z,4.50
2022-12-16T12:49:50.047Z,4.50
2022-12-16T12:52:59.827Z,4.60
2022-12-16T12:56:29.737Z,4.60
2022-12-16T13:00:00.262Z,4.40
2022-12-16T13:03:16.641Z,4.20
2022-12-16T13:06:23.868Z,3.90
2022-12-16T13:09:43.831Z,4.30
2022-12-16T13:12:53.139Z,4.20
2022-12-16T13:15:59.290Z,4.00
2022-12-16T13:19:08.058Z,3.90
2022-12-16T13:22:14.684Z,3.80
2022-12-16T13:25:24.154Z,3.60
2022-12-16T13:28:32.369Z,3.30
2022-12-16T13:31:37.999Z,2.90
2022-12-16T13:34:45.811Z,3.10
2022-12-16T13:37:52.312Z,3.00
2022-12-16T13:41:17.214Z,2.90
2022-12-16T13:44:22.866Z,2.70
2022-12-16T13:47:53.920Z,2.60
2022-12-16T13:51:02.058Z,2.60
2022-12-16T13:54:10.076Z,2.50
2022-12-16T13:57:19.328Z,2.60
2022-12-16T14:00:38.100Z,2.70
2022-12-16T14:03:55.074Z,2.70
2022-12-16T14:07:05.130Z,2.70
2022-12-16T14:10:10.442Z,2.50
2022-12-16T14:13:30.990Z,2.50
2022-12-16T14:16:48.149Z,2.50
2022-12-16T14:20:14.776Z,2.50
2022-12-16T14:23:56.395Z,2.40
2022-12-16T14:26:56.283Z,2.20
2022-12-16T14:30:02.880Z,2.00
2022-12-16T14:33:08.301Z,2.00
2022-12-16T14:36:13.670Z,1.90
2022-12-16T14:39:19.137Z,1.70
2022-12-16T14:42:39.874Z,1.60
2022-12-16T14:45:52.379Z,1.50
2022-12-16T14:48:58.385Z,1.50
2022-12-16T14:52:07.727Z,1.30
2022-12-16T14:55:13.135Z,1.30
2022-12-16T14:58:34.062Z,1.20
2022-12-16T15:01:46.082Z,1.10
2022-12-16T15:04:52.706Z,1.00
2022-12-16T15:08:01.081Z,0.80
2022-12-16T15:11:06.793Z,0.70
2022-12-16T15:14:15.380Z,0.70
2022-12-16T15:17:21.401Z,0.80
2022-12-16T15:20:29.421Z,0.80
2022-12-16T15:23:41.351Z,0.80
2022-12-16T15:26:48.905Z,0.70
2022-12-16T15:29:56.675Z,0.60
2022-12-16T15:33:02.475Z,0.40
2022-12-16T15:36:08.131Z,0.30
2022-12-16T15:39:13.494Z,0.40
2022-12-16T15:42:19.337Z,0.40
2022-12-16T15:45:26.447Z,0.30
2022-12-16T15:48:43.730Z,0.30
2022-12-16T15:52:04.005Z,0.30
2022-12-16T15:55:11.977Z,0.40
2022-12-16T15:58:19.129Z,0.30
2022-12-16T16:01:26.153Z,0.30
2022-12-16T16:04:46.633Z,0.30
2022-12-16T16:07:53.255Z,0.20
2022-12-16T16:11:01.077Z,0.10
2022-12-16T16:14:13.921Z,0.00
2022-12-16T16:17:14.690Z,-0.10
2022-12-16T16:20:07.114Z,-0.10
2022-12-16T16:23:15.318Z,-0.20
2022-12-16T16:26:20.618Z,-0.30
2022-12-16T16:29:27.864Z,-0.40
2022-12-16T16:32:32.631Z,-0.50
2022-12-16T16:35:38.095Z,-0.60
2022-12-16T16:38:44.061Z,-0.70
2022-12-16T16:41:49.566Z,-0.80
2022-12-16T16:44:55.021Z,-1.00
2022-12-16T16:48:00.361Z,-1.30
2022-12-16T16:51:07.224Z,-1.40
2022-12-16T16:54:12.458Z,-1.40
2022-12-16T16:57:20.149Z,-1.60
2022-12-16T17:00:28.221Z,-1.70
2022-12-16T17:03:34.632Z,-1.90
2022-12-16T17:06:40.148Z,-2.00
2022-12-16T17:09:45.174Z,-2.10
2022-12-16T17:12:50.755Z,-2.30
2022-12-16T17:15:56.733Z,-2.40
2022-12-16T17:19:02.071Z,-2.50
2022-12-16T17:22:07.468Z,-2.50
2022-12-16T17:25:13.443Z,-2.50
2022-12-16T17:28:20.099Z,-2.60
2022-12-16T17:31:26.904Z,-2.70
2022-12-16T17:34:32.274Z,-2.80
2022-12-16T17:37:37.671Z,-2.90
2022-12-16T17:40:43.004Z,-3.00
2022-12-16T17:43:48.876Z,-2.90
2022-12-16T17:46:54.486Z,-2.90
2022-12-16T17:49:59.947Z,-3.00
2022-12-16T17:53:06.889Z,-3.20
2022-12-16T17:56:15.279Z,-3.40
2022-12-16T17:59:20.336Z,-3.50
2022-12-16T18:02:25.758Z,-3.60
2022-12-16T18:05:37.623Z,-3.70
2022-12-16T18:08:38.923Z,-3.80
2022-12-16T18:11:44.093Z,-3.90
2022-12-16T18:14:50.315Z,-4.00
2022-12-16T18:17:55.479Z,-4.00
2022-12-16T18:21:00.840Z,-4.00
2022-12-16T18:24:06.347Z,-4.00
2022-12-16T18:27:13.482Z,-4.00
2022-12-16T18:30:18.236Z,-4.10
2022-12-16T18:33:23.688Z,-4.20
2022-12-16T18:36:28.762Z,-4.40
2022-12-16T18:39:34.282Z,-4.40
2022-12-16T18:42:39.778Z,-4.50
2022-12-16T18:45:45.206Z,-4.50
2022-12-16T18:48:50.628Z,-4.50
2022-12-16T18:51:56.043Z,-4.50
2022-12-16T18:55:02.127Z,-4.50
2022-12-16T18:58:20.997Z,-4.50
2022-12-16T19:01:26.171Z,-4.60
2022-12-16T19:04:31.850Z,-4.70
2022-12-16T19:07:36.761Z,-4.80
2022-12-16T19:10:45.045Z,-4.90
2022-12-16T19:13:50.387Z,-4.80
2022-12-16T19:16:55.438Z,-4.70
2022-12-16T19:20:00.975Z,-4.70
2022-12-16T19:23:06.230Z,-4.60
2022-12-16T19:26:18.762Z,-4.60
2022-12-16T19:29:24.571Z,-4.70
2022-12-16T19:32:30.229Z,-4.80
2022-12-16T19:35:35.785Z,-4.80
2022-12-16T19:38:44.014Z,-4.90
2022-12-16T19:41:49.334Z,-4.90
2022-12-16T19:44:56.131Z,-4.90
2022-12-16T19:48:01.589Z,-4.90
2022-12-16T19:51:07.316Z,-4.90
2022-12-16T19:54:13.130Z,-4.90
2022-12-16T19:57:31.182Z,-5.00
2022-12-16T20:00:36.725Z,-5.00
2022-12-16T20:03:42.324Z,-5.10
2022-12-16T20:06:49.089Z,-5.20
2022-12-16T20:09:54.879Z,-5.30
2022-12-16T20:13:01.866Z,-5.30
2022-12-16T20:16:07.243Z,-5.30
2022-12-16T20:19:13.603Z,-5.40
2022-12-16T20:22:19.423Z,-5.40
2022-12-16T20:25:25.091Z,-5.40
2022-12-16T20:28:30.611Z,-5.50
2022-12-16T20:31:36.438Z,-5.60
2022-12-16T20:34:43.389Z,-5.60
2022-12-16T20:37:47.745Z,-5.60
2022-12-16T20:40:53.243Z,-5.70
2022-12-16T20:44:00.072Z,-5.70
2022-12-16T20:47:05.485Z,-5.70
2022-12-16T20:50:11.067Z,-5.80
2022-12-16T20:53:16.646Z,-5.70
2022-12-16T20:56:22.401Z,-5.70
2022-12-16T20:59:27.595Z,-5.70
2022-12-16T21:02:34.361Z,-5.80
2022-12-16T21:05:40.001Z,-5.80
2022-12-16T21:08:46.961Z,-5.90
2022-12-16T21:11:52.204Z,-5.80
2022-12-16T21:14:58.813Z,-5.80
2022-12-16T21:18:04.000Z,-5.70
2022-12-16T21:21:15.774Z,-5.70
2022-12-16T21:24:27.532Z,-5.80
2022-12-16T21:27:32.799Z,-5.80
2022-12-16T21:30:38.247Z,-5.90
2022-12-16T21:33:44.106Z,-5.90
2022-12-16T21:36:49.820Z,-5.90
2022-12-16T21:39:56.081Z,-5.80
2022-12-16T21:43:01.353Z,-5.80
2022-12-16T21:46:13.835Z,-5.80
2022-12-16T21:49:18.870Z,-5.90
2022-12-16T21:52:24.358Z,-5.90
2022-12-16T21:55:30.879Z,-5.90
2022-12-16T21:58:37.886Z,-6.00
2022-12-16T22:01:43.821Z,-6.00
2022-12-16T22:04:49.169Z,-6.00
2022-12-16T22:07:54.273Z,-6.10
2022-12-16T22:11:01.466Z,-6.00
2022-12-16T22:14:07.291Z,-6.10
2022-12-16T22:17:12.721Z,-6.10
2022-12-16T22:20:17.979Z,-6.00
2022-12-16T22:26:33.209Z,-6.00
2022-12-16T22:29:38.768Z,-6.10
2022-12-16T22:32:44.104Z,-6.20
2022-12-16T22:35:49.916Z,-6.20
2022-12-16T22:38:56.268Z,-6.20
2022-12-16T22:42:01.570Z,-6.20
2022-12-16T22:45:07.069Z,-6.10
2022-12-16T22:48:13.576Z,-6.10
2022-12-16T22:51:19.019Z,-6.10
2022-12-16T22:54:20.137Z,-6.10
2022-12-16T22:57:25.251Z,-6.10
2022-12-16T23:00:31.675Z,-6.10
2022-12-16T23:03:38.594Z,-6.00
2022-12-16T23:06:44.563Z,-6.10
2022-12-16T23:09:53.911Z,-6.10
2022-12-16T23:13:01.319Z,-6.10
2022-12-16T23:16:07.088Z,-6.10
2022-12-16T23:19:12.478Z,-6.20
2022-12-16T23:22:18.003Z,-6.30
2022-12-16T23:25:23.622Z,-6.30
2022-12-16T23:28:29.334Z,-6.30
2022-12-16T23:31:34.853Z,-6.40
2022-12-16T23:34:45.433Z,-6.40
2022-12-16T23:37:47.356Z,-6.40
2022-12-16T23:40:52.426Z,-6.50
2022-12-16T23:43:57.986Z,-6.50
2022-12-16T23:47:03.519Z,-6.30
2022-12-16T23:50:12.489Z,-6.30
2022-12-16T23:53:24.805Z,-6.30
2022-12-16T23:56:29.911Z,-6.40
2022-12-16T23:59:35.454Z,-6.50
